Time;durP1;ratioP1;P1;durP2;ratioP2;P2;SDS_P1;SDS_P2;PMS_P1;PMS_P2;Temp;Humidity;BMP_temperature;BMP_pressure;BME280_temperature;BME280_humidity;BME280_pressure;Samples;Min_cycle;Max_cycle;Signal;HPM_P1;HPM_P2
2021/12/19 00:01:31;;;;;;;93.70;23.83;;;5.90;99.90;;;;;;5011409;28;20498;-58
2021/12/19 00:04:21;;;;;;;69.47;23.05;;;5.90;99.90;;;;;;5011495;28;20052;-58
2021/12/19 00:09:30;;;;;;;77.95;23.92;;;5.80;99.90;;;;;;5011074;28;20403;-58
2021/12/19 00:11:57;;;;;;;64.90;22.00;;;5.90;99.90;;;;;;5011276;28;20026;-58
2021/12/19 00:14:23;;;;;;;86.32;24.40;;;5.90;99.90;;;;;;5011363;28;20578;-58
2021/12/19 00:16:54;;;;;;;88.00;23.88;;;5.90;99.90;;;;;;5010835;28;20018;-59
2021/12/19 00:19:20;;;;;;;78.55;23.48;;;5.90;99.90;;;;;;5010829;28;20372;-59
2021/12/19 00:21:46;;;;;;;74.25;23.15;;;6.00;99.90;;;;;;5010785;28;20037;-59
2021/12/19 00:24:12;;;;;;;80.28;24.05;;;5.90;99.90;;;;;;5010861;28;20412;-58
2021/12/19 00:26:38;;;;;;;92.10;24.02;;;5.90;99.90;;;;;;5009546;28;20521;-59
2021/12/19 00:29:04;;;;;;;108.32;24.98;;;6.00;99.90;;;;;;5010622;28;20121;-59
2021/12/19 00:31:31;;;;;;;104.68;25.48;;;6.20;99.90;;;;;;5010682;28;20025;-59
2021/12/19 00:33:57;;;;;;;86.43;24.30;;;6.20;99.90;;;;;;5010853;28;20034;-59
2021/12/19 00:36:23;;;;;;;108.53;25.23;;;6.30;99.90;;;;;;5011009;28;20491;-59
2021/12/19 00:38:51;;;;;;;104.45;26.33;;;6.30;99.90;;;;;;5010769;28;20030;-59
2021/12/19 00:41:17;;;;;;;96.47;25.35;;;6.50;99.90;;;;;;5042653;28;20077;-59
2021/12/19 00:43:55;;;;;;;92.57;23.90;;;6.40;99.90;;;;;;5011016;28;20065;-59
2021/12/19 00:46:23;;;;;;;83.45;23.27;;;6.40;99.90;;;;;;5010915;28;20017;-59
2021/12/19 00:48:52;;;;;;;88.03;24.42;;;6.40;99.90;;;;;;5011297;28;20116;-59
2021/12/19 00:51:25;;;;;;;64.82;23.00;;;6.40;99.90;;;;;;5014522;28;20091;-59
2021/12/19 00:53:53;;;;;;;44.60;19.55;;;6.20;99.90;;;;;;5014510;28;20026;-59
2021/12/19 00:56:23;;;;;;;42.15;19.60;;;6.00;99.90;;;;;;5014008;28;20029;-59
2021/12/19 00:58:51;;;;;;;49.22;20.20;;;5.90;99.90;;;;;;5013666;28;20026;-59
2021/12/19 01:01:18;;;;;;;49.10;20.90;;;5.90;99.90;;;;;;5013913;28;20144;-59
2021/12/19 01:03:46;;;;;;;40.13;19.20;;;6.00;99.90;;;;;;5013916;28;20368;-58
2021/12/19 01:06:16;;;;;;;38.60;18.38;;;6.00;99.90;;;;;;5028997;28;20026;-59
2021/12/19 01:08:42;;;;;;;77.72;20.33;;;5.90;99.90;;;;;;5028398;28;20132;-58
2021/12/19 01:11:07;;;;;;;56.90;21.13;;;6.10;99.90;;;;;;5013662;28;20591;-59
2021/12/19 01:13:33;;;;;;;85.25;22.27;;;6.40;99.90;;;;;;5014073;28;20129;-59
2021/12/19 01:16:01;;;;;;;86.70;23.00;;;6.50;99.90;;;;;;5013607;28;20044;-58
2021/12/19 01:18:27;;;;;;;88.68;23.48;;;6.60;99.90;;;;;;5013865;28;20026;-58
2021/12/19 01:20:53;;;;;;;98.32;24.67;;;6.50;99.90;;;;;;5012423;28;20026;-59
2021/12/19 01:23:18;;;;;;;118.97;25.08;;;6.50;99.90;;;;;;5013332;28;20041;-58
2021/12/19 01:25:44;;;;;;;97.80;24.00;;;6.60;99.90;;;;;;5013704;28;20116;-59
2021/12/19 01:28:10;;;;;;;116.68;24.48;;;6.70;99.90;;;;;;5014101;28;20036;-58
2021/12/19 01:30:35;;;;;;;96.43;24.17;;;6.70;99.90;;;;;;5013758;28;20093;-58
2021/12/19 01:33:02;;;;;;;130.65;25.65;;;6.60;99.90;;;;;;5013874;28;20072;-59
2021/12/19 01:35:27;;;;;;;106.57;24.60;;;6.70;99.90;;;;;;5013403;28;20076;-59
2021/12/19 01:37:53;;;;;;;84.28;21.85;;;6.80;99.90;;;;;;5013511;28;20018;-59
2021/12/19 01:40:20;;;;;;;89.82;23.15;;;6.70;99.90;;;;;;5013540;28;20022;-59
2021/12/19 01:42:51;;;;;;;78.22;22.85;;;6.60;99.90;;;;;;5012892;28;20045;-59
2021/12/19 01:45:28;;;;;;;69.38;22.10;;;6.60;99.90;;;;;;5013091;28;20030;-59
2021/12/19 01:47:55;;;;;;;56.75;18.65;;;6.50;99.90;;;;;;5012547;28;20022;-59
2021/12/19 01:50:21;;;;;;;54.33;18.98;;;6.30;99.90;;;;;;5013299;28;20022;-59
2021/12/19 01:52:48;;;;;;;41.78;18.00;;;6.20;99.90;;;;;;5012887;28;20052;-59
2021/12/19 01:55:14;;;;;;;37.75;16.33;;;6.10;99.90;;;;;;5013155;28;20014;-59
2021/12/19 01:57:39;;;;;;;37.85;16.92;;;6.10;99.90;;;;;;5013257;28;20033;-59
2021/12/19 02:00:07;;;;;;;34.65;16.90;;;6.00;99.90;;;;;;5012514;28;20498;-59
2021/12/19 02:02:33;;;;;;;31.92;16.00;;;6.00;99.90;;;;;;5026980;28;20030;-59
2021/12/19 02:04:59;;;;;;;34.60;16.55;;;6.00;99.90;;;;;;5012815;28;20404;-59
2021/12/19 02:07:26;;;;;;;34.85;16.65;;;6.00;99.90;;;;;;5012855;28;20545;-59
2021/12/19 02:09:51;;;;;;;39.20;17.88;;;6.00;99.90;;;;;;5012524;28;20109;-59
2021/12/19 02:12:20;;;;;;;51.03;19.02;;;6.20;99.90;;;;;;5012393;28;20152;-59
2021/12/19 02:14:46;;;;;;;61.63;19.67;;;6.50;99.90;;;;;;5012816;28;20026;-59
2021/12/19 02:17:12;;;;;;;70.85;21.15;;;6.60;99.90;;;;;;5011558;28;20116;-59
2021/12/19 02:19:40;;;;;;;62.05;20.88;;;6.80;99.90;;;;;;5012539;28;20033;-59
2021/12/19 02:22:06;;;;;;;81.65;21.83;;;6.70;99.90;;;;;;5012658;28;20502;-59
2021/12/19 02:24:34;;;;;;;117.68;23.67;;;6.70;99.90;;;;;;5012563;28;20045;-59
2021/12/19 02:27:00;;;;;;;109.93;23.50;;;6.70;99.90;;;;;;5012742;28;20002;-59
2021/12/19 02:29:25;;;;;;;125.85;24.70;;;6.80;99.90;;;;;;5012357;28;20109;-59
2021/12/19 02:31:51;;;;;;;109.70;25.00;;;6.80;99.90;;;;;;5012383;28;20281;-59
2021/12/19 02:34:21;;;;;;;82.03;23.52;;;6.70;99.90;;;;;;5012070;28;20022;-59
2021/12/19 02:50:50;;;;;;;48.85;18.83;;;6.50;99.90;;;;;;5010984;28;20123;-59
2021/12/19 02:53:26;;;;;;;51.53;18.65;;;6.40;99.90;;;;;;5011680;28;20037;-59
2021/12/19 02:55:52;;;;;;;57.08;18.63;;;6.40;99.90;;;;;;5011383;28;20113;-59
2021/12/19 02:58:17;;;;;;;56.97;19.73;;;6.50;99.90;;;;;;5011504;28;20112;-60
2021/12/19 03:00:43;;;;;;;59.22;19.90;;;6.50;99.90;;;;;;5011178;28;20033;-59
2021/12/19 03:03:09;;;;;;;40.70;17.63;;;6.50;99.90;;;;;;5009992;28;20029;-60
2021/12/19 03:05:34;;;;;;;63.47;19.13;;;6.50;99.90;;;;;;5010803;28;20026;-59
2021/12/19 03:08:03;;;;;;;56.63;17.70;;;6.40;99.90;;;;;;5011385;28;20034;-59
2021/12/19 03:18:32;;;;;;;78.95;21.60;;;6.30;99.90;;;;;;5011609;28;20040;-59
2021/12/19 03:20:58;;;;;;;125.35;23.10;;;6.40;99.90;;;;;;5010875;28;20080;-58
2021/12/19 03:23:24;;;;;;;88.75;20.52;;;6.50;99.90;;;;;;5010921;28;20021;-59
2021/12/19 03:25:50;;;;;;;83.05;20.00;;;6.50;99.90;;;;;;5010816;28;20062;-59
2021/12/19 03:28:16;;;;;;;287.10;25.83;;;6.50;99.90;;;;;;5010698;28;20399;-59
2021/12/19 03:30:44;;;;;;;294.90;29.05;;;6.70;99.90;;;;;;5025950;28;20052;-59
2021/12/19 03:33:11;;;;;;;376.95;32.78;;;7.00;99.90;;;;;;5010964;28;20025;-59
2021/12/19 03:35:37;;;;;;;172.18;25.98;;;7.20;99.90;;;;;;5010668;28;20049;-58
2021/12/19 03:38:07;;;;;;;176.23;25.83;;;7.10;99.90;;;;;;5010922;28;20446;-59
2021/12/19 03:40:39;;;;;;;253.98;27.13;;;6.90;99.90;;;;;;5010771;28;20368;-59
2021/12/19 03:43:16;;;;;;;272.35;27.67;;;6.90;99.90;;;;;;5010873;28;20030;-58
2021/12/19 03:45:43;;;;;;;275.20;27.17;;;6.90;99.90;;;;;;5011060;28;20024;-59
2021/12/19 03:48:12;;;;;;;353.73;29.45;;;7.00;99.90;;;;;;5010842;28;20018;-59
2021/12/19 03:50:43;;;;;;;381.80;31.30;;;7.10;99.90;;;;;;5011049;28;20022;-59
2021/12/19 03:53:09;;;;;;;202.48;25.52;;;7.30;99.90;;;;;;5009672;28;20026;-59
2021/12/19 03:55:35;;;;;;;448.58;31.42;;;7.00;99.90;;;;;;5025509;28;20030;-59
2021/12/19 03:58:02;;;;;;;100.03;21.80;;;7.00;99.90;;;;;;5010680;28;20498;-59
2021/12/19 04:00:31;;;;;;;108.53;22.50;;;6.90;99.90;;;;;;5010509;28;20113;-59
2021/12/19 04:03:00;;;;;;;115.78;21.20;;;6.80;99.90;;;;;;5010273;28;20072;-59
2021/12/19 04:05:27;;;;;;;83.20;21.75;;;6.70;99.90;;;;;;5010443;28;20030;-59
2021/12/19 04:07:52;;;;;;;256.70;25.73;;;6.50;99.90;;;;;;5010422;28;20021;-59
2021/12/19 04:10:18;;;;;;;224.27;24.52;;;6.60;99.90;;;;;;5010200;28;20105;-59
2021/12/19 04:12:44;;;;;;;294.48;27.55;;;6.80;99.90;;;;;;5010483;28;20032;-59
2021/12/19 04:15:11;;;;;;;333.23;28.85;;;7.00;99.90;;;;;;5010435;28;20464;-59
2021/12/19 04:17:37;;;;;;;317.02;28.90;;;7.20;99.90;;;;;;5008646;28;20490;-59
2021/12/19 04:20:04;;;;;;;182.15;26.52;;;7.20;99.90;;;;;;5010065;28;20100;-59
2021/12/19 04:22:29;;;;;;;190.05;25.30;;;7.10;99.90;;;;;;5010283;28;20034;-59
2021/12/19 04:24:55;;;;;;;135.38;24.33;;;6.90;99.90;;;;;;5012552;28;20534;-59
2021/12/19 04:27:21;;;;;;;124.43;24.05;;;6.80;99.90;;;;;;5014306;28;20045;-59
2021/12/19 04:29:47;;;;;;;124.82;25.17;;;6.80;99.90;;;;;;5013858;28;20034;-59
2021/12/19 04:32:12;;;;;;;155.60;24.67;;;6.80;99.90;;;;;;5014023;28;20026;-59
2021/12/19 04:34:39;;;;;;;105.05;23.65;;;6.70;99.90;;;;;;5014097;28;20034;-59
2021/12/19 04:37:24;;;;;;;90.75;21.50;;;6.80;99.90;;;;;;5013835;28;20030;-59
2021/12/19 04:39:59;;;;;;;99.15;23.60;;;6.70;99.90;;;;;;5014028;28;20407;-59
2021/12/19 05:01:01;;;;;;;63.10;19.55;;;6.40;99.90;;;;;;5013845;28;20571;-60
2021/12/19 05:17:03;;;;;;;62.85;20.77;;;6.30;99.90;;;;;;5016947;28;20070;-59
2021/12/19 05:19:42;;;;;;;49.90;18.00;;;6.40;99.90;;;;;;5011766;28;20049;-59
2021/12/19 05:22:08;;;;;;;58.72;20.20;;;6.30;99.90;;;;;;5012212;28;20438;-59
2021/12/19 05:27:06;;;;;;;54.58;20.00;;;6.30;99.90;;;;;;5013438;28;20112;-59
2021/12/19 05:29:33;;;;;;;60.85;19.63;;;6.40;99.90;;;;;;5013009;28;20475;-59
2021/12/19 05:31:59;;;;;;;63.22;20.92;;;6.50;99.90;;;;;;5013037;28;20037;-59
2021/12/19 05:34:26;;;;;;;61.42;20.67;;;6.40;99.90;;;;;;5013223;28;20032;-60
2021/12/19 05:47:30;;;;;;;66.93;21.80;;;6.40;99.90;;;;;;5012993;28;20026;-59
2021/12/19 05:49:56;;;;;;;77.55;22.58;;;6.40;99.90;;;;;;5012589;28;20044;-59
2021/12/19 05:52:21;;;;;;;75.10;22.33;;;6.40;99.90;;;;;;5012786;28;20498;-59
2021/12/19 05:54:47;;;;;;;71.68;22.45;;;6.50;99.90;;;;;;5012696;28;20057;-59
2021/12/19 05:57:15;;;;;;;81.07;23.40;;;6.50;99.90;;;;;;5027374;28;20026;-59
2021/12/19 05:59:40;;;;;;;96.13;25.90;;;6.50;99.90;;;;;;5027506;28;20036;-59
2021/12/19 06:02:06;;;;;;;116.53;26.25;;;6.60;99.90;;;;;;5012311;28;20534;-59
2021/12/19 06:04:32;;;;;;;105.47;25.52;;;6.70;99.90;;;;;;5011663;28;20040;-59
2021/12/19 06:06:58;;;;;;;97.35;25.00;;;6.80;99.90;;;;;;5012551;28;20479;-59
2021/12/19 06:09:24;;;;;;;109.47;26.58;;;6.80;99.90;;;;;;5012409;28;20076;-59
2021/12/19 06:11:49;;;;;;;88.45;25.17;;;6.80;99.90;;;;;;5012198;28;20022;-59
2021/12/19 06:14:15;;;;;;;99.38;26.90;;;6.70;99.90;;;;;;5012064;28;20050;-59
2021/12/19 06:16:41;;;;;;;98.95;25.40;;;6.70;99.90;;;;;;5012572;28;20493;-59
2021/12/19 06:19:06;;;;;;;100.38;25.30;;;6.70;99.90;;;;;;5027112;28;20197;-59
2021/12/19 06:21:32;;;;;;;120.18;26.58;;;6.60;99.90;;;;;;5010600;28;20029;-59
2021/12/19 06:23:58;;;;;;;104.22;24.88;;;6.60;99.90;;;;;;5012087;28;20084;-59
2021/12/19 06:26:23;;;;;;;99.78;23.90;;;6.70;99.90;;;;;;5012111;28;20172;-59
2021/12/19 06:28:49;;;;;;;113.22;22.35;;;6.70;99.90;;;;;;5012003;28;20029;-59
2021/12/19 06:31:17;;;;;;;89.45;22.85;;;6.60;99.90;;;;;;5011944;28;20072;-59
2021/12/19 06:33:43;;;;;;;103.15;21.75;;;6.50;99.90;;;;;;5011949;28;20061;-59
2021/12/19 06:36:09;;;;;;;112.22;22.25;;;6.40;99.90;;;;;;5011997;28;20432;-59
2021/12/19 06:38:35;;;;;;;110.50;23.45;;;6.40;99.90;;;;;;5011713;28;20029;-59
2021/12/19 06:41:01;;;;;;;98.03;21.23;;;6.40;99.90;;;;;;5011815;28;20418;-59
2021/12/19 06:43:30;;;;;;;98.30;21.85;;;6.40;99.90;;;;;;5011849;28;20034;-60
2021/12/19 06:45:56;;;;;;;80.72;19.95;;;6.40;99.90;;;;;;5011578;28;20076;-59
2021/12/19 06:48:24;;;;;;;75.55;19.63;;;6.30;99.90;;;;;;5010945;28;20117;-59
2021/12/19 06:50:51;;;;;;;85.28;21.02;;;6.30;99.90;;;;;;5011677;28;20025;-59
2021/12/19 06:53:16;;;;;;;67.18;19.42;;;6.30;99.90;;;;;;5012372;28;20106;-59
2021/12/19 06:55:42;;;;;;;85.53;20.73;;;6.30;99.90;;;;;;5026693;28;20109;-59
2021/12/19 06:58:08;;;;;;;75.00;20.38;;;6.40;99.90;;;;;;5011499;28;20494;-59
2021/12/19 07:00:33;;;;;;;68.00;19.90;;;6.30;99.90;;;;;;5011455;28;20026;-59
2021/12/19 07:02:59;;;;;;;54.17;18.55;;;6.30;99.90;;;;;;5011782;28;20028;-59
2021/12/19 07:05:25;;;;;;;59.17;17.88;;;6.30;99.90;;;;;;5012209;28;20018;-59
2021/12/19 07:07:51;;;;;;;57.85;17.10;;;6.20;99.90;;;;;;5011279;28;20488;-59
2021/12/19 07:10:17;;;;;;;52.75;17.52;;;6.20;99.90;;;;;;5011438;28;20419;-59
2021/12/19 07:12:42;;;;;;;57.90;17.88;;;6.20;99.90;;;;;;5011860;28;20111;-59
2021/12/19 07:15:09;;;;;;;55.97;18.33;;;6.20;99.90;;;;;;5011865;28;20026;-59
2021/12/19 07:17:35;;;;;;;65.28;19.20;;;6.20;99.90;;;;;;5012013;28;20464;-59
2021/12/19 07:20:01;;;;;;;65.03;18.45;;;6.30;99.90;;;;;;5011070;28;20037;-59
2021/12/19 07:22:26;;;;;;;75.05;19.92;;;6.30;99.90;;;;;;5010933;28;20036;-59
2021/12/19 07:24:52;;;;;;;82.32;19.33;;;6.30;99.90;;;;;;5010957;28;20064;-59
2021/12/19 07:27:18;;;;;;;72.47;20.35;;;6.30;99.90;;;;;;5010844;28;20073;-59
2021/12/19 07:29:43;;;;;;;59.05;19.50;;;6.30;99.90;;;;;;5010627;28;20033;-59
2021/12/19 07:32:10;;;;;;;67.05;18.77;;;6.30;99.90;;;;;;5010432;28;20100;-59
2021/12/19 07:34:37;;;;;;;75.32;19.85;;;6.30;99.90;;;;;;5011150;28;20406;-59
2021/12/19 07:37:04;;;;;;;81.05;19.27;;;6.20;99.90;;;;;;5010485;28;20429;-59
2021/12/19 07:42:03;;;;;;;81.67;19.47;;;6.30;99.90;;;;;;5010724;28;20239;-59
2021/12/19 07:44:28;;;;;;;68.20;20.55;;;6.30;99.90;;;;;;5010465;28;20318;-59
2021/12/19 07:46:54;;;;;;;73.97;19.67;;;6.40;99.90;;;;;;5010353;28;20030;-59
2021/12/19 07:49:20;;;;;;;77.85;20.35;;;6.40;99.90;;;;;;5010509;28;20070;-59
2021/12/19 07:51:45;;;;;;;66.38;20.38;;;6.40;99.90;;;;;;5010619;28;20024;-59
2021/12/19 07:54:11;;;;;;;62.83;19.27;;;6.40;99.90;;;;;;5010533;28;20112;-59
2021/12/19 07:56:37;;;;;;;75.82;18.65;;;6.50;99.90;;;;;;5010352;28;20101;-63
2021/12/19 07:59:03;;;;;;;64.88;18.05;;;6.50;99.90;;;;;;5009789;28;20121;-59
2021/12/19 08:01:28;;;;;;;57.47;18.55;;;6.50;99.90;;;;;;5010278;28;20523;-59
2021/12/19 08:03:54;;;;;;;74.80;18.77;;;6.40;99.90;;;;;;5010679;28;20132;-59
2021/12/19 08:06:20;;;;;;;54.75;18.90;;;6.50;99.90;;;;;;5010370;28;20033;-59
2021/12/19 08:08:50;;;;;;;92.00;20.60;;;6.40;99.90;;;;;;5010293;28;20395;-59
2021/12/19 08:14:01;;;;;;;98.85;21.10;;;6.70;99.90;;;;;;5010558;28;20029;-59
2021/12/19 08:16:26;;;;;;;87.68;20.20;;;6.80;99.90;;;;;;5025424;28;20026;-59
2021/12/19 08:18:52;;;;;;;75.00;19.50;;;6.70;99.90;;;;;;5010187;28;20056;-59
2021/12/19 08:21:19;;;;;;;87.72;19.60;;;6.50;99.90;;;;;;5010569;28;20022;-59
2021/12/19 08:23:45;;;;;;;70.13;19.27;;;6.50;99.90;;;;;;5010652;28;20042;-59
2021/12/19 08:26:11;;;;;;;111.63;20.73;;;6.50;99.90;;;;;;5009960;28;20054;-59
2021/12/19 08:28:37;;;;;;;84.07;22.20;;;6.60;99.90;;;;;;5009851;28;20029;-59
2021/12/19 08:31:05;;;;;;;104.53;21.23;;;6.70;99.90;;;;;;5010141;28;20096;-59
2021/12/19 08:33:30;;;;;;;97.13;21.92;;;6.70;99.90;;;;;;5010686;28;20463;-59
2021/12/19 08:35:57;;;;;;;91.60;21.27;;;6.80;99.90;;;;;;5010288;28;20054;-59
2021/12/19 08:38:23;;;;;;;82.45;21.52;;;6.80;99.90;;;;;;5009648;28;20026;-59
2021/12/19 08:40:51;;;;;;;98.38;23.65;;;6.70;99.90;;;;;;5010277;28;20527;-59
2021/12/19 08:43:17;;;;;;;82.20;22.38;;;6.70;99.90;;;;;;5008470;28;20034;-59
2021/12/19 08:45:43;;;;;;;94.68;23.50;;;6.70;99.90;;;;;;5009786;28;20105;-59
2021/12/19 08:48:09;;;;;;;92.68;23.33;;;6.80;99.90;;;;;;5009547;28;20105;-59
2021/12/19 08:50:34;;;;;;;78.07;23.65;;;6.80;99.90;;;;;;5009973;28;20022;-59
2021/12/19 08:53:00;;;;;;;78.30;24.50;;;6.90;99.90;;;;;;5025071;28;20080;-59
2021/12/19 08:55:26;;;;;;;89.72;23.58;;;6.80;99.90;;;;;;5010029;28;20520;-59
2021/12/19 08:57:51;;;;;;;72.78;22.52;;;6.90;99.90;;;;;;5009715;28;20018;-59
2021/12/19 09:00:18;;;;;;;81.10;21.55;;;6.90;99.90;;;;;;5010017;28;20104;-59
2021/12/19 09:02:47;;;;;;;67.45;21.77;;;6.90;99.90;;;;;;5009858;28;20030;-59
2021/12/19 09:05:13;;;;;;;66.00;20.67;;;6.90;99.90;;;;;;5010418;28;20041;-59
2021/12/19 09:07:40;;;;;;;59.95;19.27;;;6.80;99.90;;;;;;5009578;28;20037;-59
2021/12/19 09:10:07;;;;;;;54.85;18.38;;;6.80;99.90;;;;;;5025223;28;20022;-59
2021/12/19 09:12:33;;;;;;;60.78;18.75;;;6.80;99.90;;;;;;5012942;28;20026;-58
2021/12/19 09:14:58;;;;;;;50.17;18.63;;;6.90;99.90;;;;;;5013084;28;20084;-58
2021/12/19 09:17:24;;;;;;;50.83;17.95;;;6.80;99.90;;;;;;5013261;28;20037;-58
2021/12/19 09:19:50;;;;;;;53.25;17.77;;;6.80;99.90;;;;;;5013007;28;20090;-57
2021/12/19 09:22:17;;;;;;;48.22;16.50;;;6.90;99.90;;;;;;5013961;28;20394;-58
2021/12/19 09:24:42;;;;;;;40.05;15.38;;;7.00;99.90;;;;;;5012980;28;20506;-57
2021/12/19 09:27:09;;;;;;;38.75;13.60;;;7.00;99.90;;;;;;5011342;28;20022;-58
2021/12/19 09:29:35;;;;;;;35.47;13.68;;;6.90;99.90;;;;;;5013011;28;20108;-56
2021/12/19 09:32:02;;;;;;;34.85;13.50;;;6.90;99.90;;;;;;5013245;28;20103;-56
2021/12/19 09:34:28;;;;;;;38.22;14.85;;;6.90;99.90;;;;;;5013360;28;20030;-56
2021/12/19 09:36:56;;;;;;;39.42;15.18;;;7.10;99.90;;;;;;5012649;28;20156;-57
2021/12/19 09:39:23;;;;;;;41.03;15.57;;;7.00;99.90;;;;;;5012652;28;20112;-57
2021/12/19 09:41:54;;;;;;;42.38;15.77;;;7.00;99.90;;;;;;5012738;28;20115;-57
2021/12/19 09:44:21;;;;;;;45.10;16.90;;;7.00;99.90;;;;;;5011550;28;20160;-57
2021/12/19 09:46:47;;;;;;;45.58;16.38;;;7.20;99.90;;;;;;5012522;28;20033;-57
2021/12/19 09:49:15;;;;;;;42.67;16.40;;;7.20;99.90;;;;;;5012127;28;20037;-57
2021/12/19 09:51:42;;;;;;;45.47;17.80;;;7.20;99.90;;;;;;5012421;28;20026;-57
2021/12/19 09:54:09;;;;;;;47.25;17.80;;;7.20;99.90;;;;;;5012208;28;20549;-57
2021/12/19 09:56:35;;;;;;;45.17;17.98;;;7.30;99.90;;;;;;5012102;28;20025;-57
2021/12/19 09:59:06;;;;;;;41.42;17.02;;;7.30;99.90;;;;;;5012155;28;20034;-57
2021/12/19 10:01:31;;;;;;;41.33;15.93;;;7.40;99.90;;;;;;5012037;28;20022;-58
2021/12/19 10:03:57;;;;;;;42.08;16.80;;;7.40;99.90;;;;;;5012231;28;20104;-58
2021/12/19 10:06:28;;;;;;;46.10;16.20;;;7.50;99.90;;;;;;5011934;28;20036;-58
2021/12/19 10:09:15;;;;;;;42.70;16.42;;;7.60;99.90;;;;;;5012096;28;20022;-58
2021/12/19 10:12:00;;;;;;;45.08;16.63;;;7.80;99.90;;;;;;5012141;28;20018;-58
2021/12/19 10:14:32;;;;;;;41.28;16.63;;;7.90;99.90;;;;;;5012268;28;20076;-58
2021/12/19 10:17:01;;;;;;;45.22;17.90;;;7.90;99.90;;;;;;5012023;28;20021;-58
2021/12/19 10:19:44;;;;;;;37.20;15.90;;;7.90;99.90;;;;;;5027126;28;20168;-58
2021/12/19 10:22:40;;;;;;;38.47;16.17;;;7.80;99.90;;;;;;5010654;28;20041;-58
2021/12/19 10:25:18;;;;;;;37.65;16.85;;;7.70;99.90;;;;;;5011244;28;20114;-58
2021/12/19 10:27:48;;;;;;;39.75;17.77;;;7.70;99.90;;;;;;5011686;28;20068;-58
2021/12/19 10:30:19;;;;;;;38.75;16.52;;;7.80;99.90;;;;;;5011730;28;20034;-58
2021/12/19 10:33:05;;;;;;;41.15;17.75;;;7.70;99.90;;;;;;5011614;28;20076;-58
2021/12/19 10:36:01;;;;;;;29.83;14.68;;;7.70;99.90;;;;;;5011459;28;20057;-58
2021/12/19 10:38:35;;;;;;;36.08;15.70;;;7.70;99.90;;;;;;5011714;28;20387;-58
2021/12/19 10:41:04;;;;;;;34.65;16.08;;;7.60;99.90;;;;;;5011685;28;20026;-58
2021/12/19 10:43:32;;;;;;;35.90;14.88;;;7.60;99.90;;;;;;5011300;28;20021;-58
2021/12/19 10:46:01;;;;;;;29.73;14.25;;;7.70;99.90;;;;;;5011500;28;20045;-58
2021/12/19 10:48:30;;;;;;;25.65;14.02;;;7.70;99.90;;;;;;5011103;28;21905;-58
2021/12/19 10:51:16;;;;;;;27.98;13.93;;;7.70;99.90;;;;;;5011171;28;20053;-59
2021/12/19 10:53:45;;;;;;;26.92;13.98;;;7.70;99.90;;;;;;5026499;28;20045;-58
2021/12/19 10:56:17;;;;;;;27.17;13.93;;;7.70;99.90;;;;;;5011281;28;20443;-58
2021/12/19 10:58:54;;;;;;;30.23;14.45;;;7.80;99.90;;;;;;5011022;28;20036;-59
2021/12/19 11:01:35;;;;;;;27.48;14.27;;;7.90;99.90;;;;;;5010863;28;20474;-58
2021/12/19 11:04:13;;;;;;;29.48;14.23;;;7.80;99.90;;;;;;5011464;28;20041;-58
2021/12/19 11:06:41;;;;;;;22.10;12.48;;;7.80;99.90;;;;;;5010788;28;20025;-58
2021/12/19 11:09:15;;;;;;;23.52;13.23;;;7.70;99.90;;;;;;5010866;28;20026;-58
2021/12/19 11:11:51;;;;;;;26.95;15.23;;;7.70;99.90;;;;;;5010673;28;20045;-58
2021/12/19 11:14:26;;;;;;;25.60;13.95;;;7.70;99.90;;;;;;5011214;28;20055;-58
2021/12/19 11:16:58;;;;;;;27.95;13.77;;;7.80;99.90;;;;;;5010745;28;20030;-58
2021/12/19 11:19:25;;;;;;;28.27;14.15;;;7.70;99.90;;;;;;5010430;28;20048;-58
2021/12/19 11:21:51;;;;;;;26.45;14.15;;;7.70;99.90;;;;;;5010887;28;20030;-58
2021/12/19 11:24:19;;;;;;;24.00;12.40;;;7.80;99.90;;;;;;5010559;28;20029;-57
2021/12/19 11:26:48;;;;;;;21.58;12.23;;;7.80;99.90;;;;;;5010795;28;20491;-57
2021/12/19 11:29:14;;;;;;;20.40;12.65;;;7.80;99.90;;;;;;5010450;28;20053;-57
2021/12/19 11:31:45;;;;;;;22.05;12.00;;;7.80;99.90;;;;;;5010369;28;20502;-57
2021/12/19 11:34:17;;;;;;;18.42;11.63;;;7.80;99.90;;;;;;5010602;28;20025;-57
2021/12/19 11:36:47;;;;;;;19.90;11.02;;;7.80;99.90;;;;;;5010443;28;20025;-57
2021/12/19 11:39:14;;;;;;;17.45;10.35;;;7.80;99.90;;;;;;5010782;28;20040;-57
2021/12/19 11:42:05;;;;;;;20.33;11.32;;;7.70;99.90;;;;;;5010251;28;20030;-57
2021/12/19 11:44:34;;;;;;;17.33;10.23;;;7.80;99.90;;;;;;5010556;28;20025;-57
2021/12/19 11:47:05;;;;;;;17.02;11.02;;;7.80;99.90;;;;;;5010096;28;20036;-57
2021/12/19 11:49:31;;;;;;;20.60;12.27;;;7.80;99.90;;;;;;5010088;28;20423;-57
2021/12/19 11:52:24;;;;;;;16.98;9.70;;;7.80;99.90;;;;;;5010183;28;20022;-57
2021/12/19 11:55:15;;;;;;;15.38;8.63;;;7.70;99.90;;;;;;5010310;28;20037;-57
2021/12/19 11:57:41;;;;;;;16.60;9.50;;;7.70;99.90;;;;;;5010207;28;20509;-57
2021/12/19 12:00:50;;;;;;;16.38;9.15;;;7.70;99.90;;;;;;5010325;28;20499;-56
2021/12/19 12:03:16;;;;;;;15.23;9.63;;;7.80;99.90;;;;;;5010211;28;20105;-56
2021/12/19 12:05:43;;;;;;;15.20;9.73;;;7.90;99.90;;;;;;5009862;28;20034;-56
2021/12/19 12:08:09;;;;;;;14.90;9.55;;;7.90;99.90;;;;;;5010129;28;20041;-56
2021/12/19 12:11:07;;;;;;;14.65;9.65;;;7.90;99.90;;;;;;5009807;28;20739;-57
2021/12/19 12:13:41;;;;;;;15.32;9.15;;;8.00;99.90;;;;;;5009941;28;20504;-57
2021/12/19 12:16:21;;;;;;;15.55;9.63;;;8.00;99.90;;;;;;5010147;28;20049;-57
2021/12/19 12:18:58;;;;;;;15.63;10.00;;;8.00;99.90;;;;;;5009843;28;20558;-57
2021/12/19 12:21:32;;;;;;;17.63;11.18;;;8.00;99.90;;;;;;5010093;28;20471;-57
2021/12/19 12:24:07;;;;;;;19.67;11.63;;;8.00;99.90;;;;;;5010119;28;20036;-57
2021/12/19 12:26:42;;;;;;;15.90;11.55;;;8.10;99.90;;;;;;5010185;28;20507;-57
2021/12/19 12:29:09;;;;;;;16.13;12.48;;;8.00;99.90;;;;;;5009887;28;20026;-57
2021/12/19 12:31:35;;;;;;;20.15;12.75;;;8.10;99.90;;;;;;5025046;28;20101;-57
2021/12/19 12:34:01;;;;;;;23.48;14.75;;;8.10;99.90;;;;;;5009699;28;20057;-57
2021/12/19 12:36:26;;;;;;;22.38;14.85;;;8.20;99.90;;;;;;5009862;28;20438;-57
2021/12/19 12:38:53;;;;;;;24.15;15.55;;;8.20;99.90;;;;;;5009629;28;20029;-57
2021/12/19 12:44:10;;;;;;;29.80;19.58;;;8.20;99.90;;;;;;5010055;28;20065;-57
2021/12/19 12:46:38;;;;;;;33.53;19.50;;;8.20;99.90;;;;;;5012901;28;20014;-57
2021/12/19 12:49:10;;;;;;;26.10;18.15;;;8.10;99.90;;;;;;5013180;28;20077;-57
2021/12/19 12:51:43;;;;;;;25.77;17.48;;;8.00;99.90;;;;;;5013390;28;20109;-56
2021/12/19 12:54:16;;;;;;;27.15;18.80;;;8.00;99.90;;;;;;5013862;28;20026;-57
2021/12/19 12:56:55;;;;;;;24.27;16.80;;;8.10;99.90;;;;;;5013590;28;20469;-57
2021/12/19 12:59:29;;;;;;;22.67;16.63;;;8.00;99.90;;;;;;5013292;28;20029;-57
2021/12/19 13:02:29;;;;;;;24.80;18.35;;;7.90;99.90;;;;;;5013317;28;20471;-57
2021/12/19 13:04:59;;;;;;;24.58;16.92;;;7.90;99.90;;;;;;5013682;28;20036;-57
2021/12/19 13:07:26;;;;;;;25.08;17.88;;;8.00;99.90;;;;;;5013439;28;20025;-57
2021/12/19 13:10:02;;;;;;;23.88;16.85;;;7.90;99.90;;;;;;5013218;28;20037;-57
2021/12/19 13:12:31;;;;;;;21.25;15.18;;;7.90;99.90;;;;;;5013076;28;20053;-57
2021/12/19 13:14:58;;;;;;;18.48;13.60;;;7.90;99.90;;;;;;5013144;28;20018;-57
2021/12/19 13:17:27;;;;;;;15.82;11.82;;;7.80;99.90;;;;;;5013266;28;20025;-57
2021/12/19 13:20:01;;;;;;;14.57;10.95;;;7.70;99.90;;;;;;5013422;28;20582;-57
2021/12/19 13:22:36;;;;;;;15.13;9.93;;;7.70;99.90;;;;;;5013537;28;20030;-58
2021/12/19 13:25:11;;;;;;;12.98;9.95;;;7.70;99.90;;;;;;5012988;28;20042;-57
2021/12/19 13:27:42;;;;;;;13.32;6.90;;;7.80;99.90;;;;;;5013173;28;20030;-57
2021/12/19 13:30:16;;;;;;;7.75;6.30;;;7.80;99.90;;;;;;5013348;28;20022;-57
2021/12/19 13:32:53;;;;;;;5.65;4.78;;;7.70;99.90;;;;;;5013390;28;20022;-57
2021/12/19 13:35:26;;;;;;;7.47;5.05;;;7.70;99.90;;;;;;5012986;28;20575;-58
2021/12/19 13:38:02;;;;;;;7.65;5.45;;;7.70;99.90;;;;;;5023360;28;20030;-57
2021/12/19 13:40:31;;;;;;;8.88;4.88;;;7.80;99.90;;;;;;5032267;28;20049;-57
2021/12/19 13:43:02;;;;;;;6.60;4.50;;;7.80;99.90;;;;;;5018253;28;20036;-57
2021/12/19 13:45:52;;;;;;;6.28;4.20;;;7.80;99.90;;;;;;5012919;28;20084;-57
2021/12/19 13:48:27;;;;;;;5.75;4.22;;;7.80;99.90;;;;;;5012903;28;20037;-57
2021/12/19 13:50:54;;;;;;;7.00;4.82;;;7.80;99.90;;;;;;5027551;28;20506;-57
2021/12/19 13:53:21;;;;;;;6.07;4.60;;;7.80;99.90;;;;;;5012440;28;20033;-57
2021/12/19 13:55:50;;;;;;;6.25;4.68;;;7.90;99.90;;;;;;5027630;28;20192;-57
2021/12/19 13:58:18;;;;;;;8.88;4.97;;;7.80;99.90;;;;;;5012117;28;20026;-57
2021/12/19 14:00:47;;;;;;;6.10;4.57;;;7.90;99.90;;;;;;5012755;28;20387;-57
2021/12/19 14:03:13;;;;;;;5.22;3.70;;;7.90;99.90;;;;;;5012364;28;20018;-57